Time;durP1;ratioP1;P1;durP2;ratioP2;P2;SDS_P1;SDS_P2;PMS_P1;PMS_P2;Temp;Humidity;BMP_temperature;BMP_pressure;BME280_temperature;BME280_humidity;BME280_pressure;Samples;Min_cycle;Max_cycle;Signal;HPM_P1;HPM_P2
2023/06/21 00:02:43;;;;;;;6.53;4.40;;;26.80;68.20;;;;;;10533828;28;20074;-33
2023/06/21 00:07:47;;;;;;;8.10;4.97;;;26.70;69.20;;;;;;10539382;28;20090;-34
2023/06/21 00:12:51;;;;;;;4.57;2.95;;;27.20;66.90;;;;;;10542549;28;20060;-30
2023/06/21 00:17:53;;;;;;;6.18;4.57;;;27.10;67.10;;;;;;10537046;28;20056;-31
2023/06/21 00:22:56;;;;;;;6.43;4.63;;;26.30;71.90;;;;;;10537132;28;20551;-32
2023/06/21 00:27:59;;;;;;;9.05;6.97;;;26.00;75.10;;;;;;10538584;28;20052;-29
2023/06/21 00:33:03;;;;;;;6.60;5.28;;;26.00;74.60;;;;;;10532938;28;20051;-31
2023/06/21 00:38:05;;;;;;;14.90;8.27;;;25.40;79.90;;;;;;10543166;28;20052;-31
2023/06/21 00:43:08;;;;;;;7.57;3.65;;;25.60;78.60;;;;;;10535583;28;20071;-34
2023/06/21 00:48:10;;;;;;;7.45;5.03;;;26.00;77.20;;;;;;10535267;28;20139;-35
2023/06/21 00:53:12;;;;;;;5.78;3.45;;;26.00;76.40;;;;;;10537697;28;20048;-31
2023/06/21 00:58:20;;;;;;;3.70;2.97;;;26.70;70.70;;;;;;10535417;28;20619;-44
2023/06/21 01:03:23;;;;;;;6.45;4.75;;;26.20;72.30;;;;;;10527167;28;20048;-35
2023/06/21 01:08:32;;;;;;;6.95;2.97;;;26.30;70.80;;;;;;10530478;28;20078;-36
2023/06/21 01:13:48;;;;;;;5.13;2.95;;;26.50;71.10;;;;;;10521989;28;20143;-39
2023/06/21 01:18:53;;;;;;;4.00;2.58;;;26.40;70.60;;;;;;10534339;28;20055;-37
2023/06/21 01:24:26;;;;;;;4.97;1.98;;;26.00;69.90;;;;;;10537557;28;20056;-35
2023/06/21 01:29:33;;;;;;;4.53;2.28;;;26.30;69.60;;;;;;10523935;28;20048;-37
2023/06/21 01:34:36;;;;;;;4.88;2.22;;;26.50;68.20;;;;;;10532278;28;20047;-33
2023/06/21 01:39:38;;;;;;;2.78;2.00;;;27.20;64.40;;;;;;10543578;28;20495;-31
2023/06/21 01:44:41;;;;;;;6.15;3.10;;;25.90;70.60;;;;;;10534106;28;20131;-37
2023/06/21 01:49:44;;;;;;;3.53;2.22;;;25.70;71.90;;;;;;10533081;28;20509;-32
2023/06/21 01:54:47;;;;;;;2.35;1.70;;;26.40;68.80;;;;;;10532812;28;20078;-31
2023/06/21 01:59:50;;;;;;;1.88;1.42;;;27.00;64.70;;;;;;10534836;28;20135;-33
2023/06/21 02:04:53;;;;;;;2.45;1.55;;;26.50;66.70;;;;;;10533743;28;20080;-30
2023/06/21 02:09:56;;;;;;;1.48;1.20;;;26.50;66.40;;;;;;10534295;28;20074;-34
2023/06/21 02:14:59;;;;;;;2.38;1.40;;;26.50;67.70;;;;;;10531950;28;20052;-31
2023/06/21 02:20:13;;;;;;;1.80;1.35;;;26.50;65.10;;;;;;10533072;28;20048;-34
2023/06/21 02:25:16;;;;;;;2.53;1.50;;;26.90;64.50;;;;;;10531916;28;20123;-33
2023/06/21 02:30:19;;;;;;;3.00;1.48;;;27.20;61.70;;;;;;10532628;28;20139;-33
2023/06/21 02:35:21;;;;;;;2.03;1.10;;;27.20;62.20;;;;;;10533019;28;20118;-32
2023/06/21 02:40:22;;;;;;;1.98;1.27;;;27.20;62.10;;;;;;10531726;28;20068;-38
2023/06/21 02:45:26;;;;;;;3.67;1.05;;;27.00;62.50;;;;;;10533555;28;20515;-37
2023/06/21 02:50:27;;;;;;;2.90;1.30;;;27.00;62.80;;;;;;10523642;28;20471;-41
2023/06/21 02:55:29;;;;;;;4.30;1.30;;;27.20;61.00;;;;;;10531843;28;20404;-32
2023/06/21 03:15:30;;;;;;;2.53;0.98;;;27.20;62.00;;;;;;10559074;27;20120;-30
2023/06/21 03:20:31;;;;;;;1.25;1.13;;;27.60;61.60;;;;;;10563086;28;20500;-31
2023/06/21 03:25:33;;;;;;;2.33;1.25;;;27.90;60.80;;;;;;10559588;28;20111;-33
2023/06/21 03:30:37;;;;;;;1.67;1.10;;;27.80;60.70;;;;;;10562413;28;20132;-34
2023/06/21 03:35:38;;;;;;;2.45;0.85;;;27.90;60.30;;;;;;10570370;28;20156;-30
2023/06/21 03:40:40;;;;;;;3.13;1.40;;;27.60;60.50;;;;;;10566669;28;20496;-33
2023/06/21 03:45:44;;;;;;;1.10;0.70;;;27.80;60.90;;;;;;10564983;28;20075;-31
2023/06/21 03:50:45;;;;;;;3.58;1.20;;;28.00;59.90;;;;;;10564498;28;20109;-32
2023/06/21 03:55:47;;;;;;;3.33;1.20;;;28.00;59.80;;;;;;10564402;28;20134;-32
2023/06/21 04:00:51;;;;;;;2.20;1.15;;;28.00;59.40;;;;;;10564252;28;20051;-32
2023/06/21 04:05:52;;;;;;;1.58;0.82;;;27.50;60.10;;;;;;10562444;28;20123;-31
2023/06/21 04:10:55;;;;;;;2.75;1.00;;;27.20;60.60;;;;;;10561196;28;20079;-31
2023/06/21 04:15:59;;;;;;;3.47;0.90;;;27.60;60.80;;;;;;10561833;28;20705;-32
2023/06/21 04:21:00;;;;;;;2.30;0.98;;;27.80;60.00;;;;;;10554856;28;20517;-34
2023/06/21 04:26:05;;;;;;;5.13;1.40;;;27.70;59.80;;;;;;10538980;28;20042;-31
2023/06/21 04:31:09;;;;;;;3.00;1.15;;;27.30;60.50;;;;;;10536827;28;20044;-28
2023/06/21 04:36:11;;;;;;;6.07;1.13;;;27.10;62.00;;;;;;10537081;28;20072;-33
2023/06/21 04:41:12;;;;;;;3.65;0.98;;;27.20;61.40;;;;;;10533657;28;20052;-32
2023/06/21 04:46:17;;;;;;;4.68;1.20;;;27.80;59.50;;;;;;10531075;28;20151;-31
2023/06/21 04:51:19;;;;;;;6.57;1.00;;;27.60;59.80;;;;;;10531027;28;20044;-31
2023/06/21 04:56:22;;;;;;;4.15;0.93;;;27.90;59.40;;;;;;10532004;28;20048;-32
2023/06/21 05:01:25;;;;;;;4.82;1.00;;;27.90;58.80;;;;;;10532884;28;20086;-33
2023/06/21 05:06:27;;;;;;;5.22;0.90;;;27.70;59.20;;;;;;10531039;28;20539;-31
2023/06/21 05:11:29;;;;;;;7.35;0.90;;;27.80;59.30;;;;;;10535480;28;20109;-31
2023/06/21 05:16:32;;;;;;;2.20;1.00;;;27.70;58.90;;;;;;10533715;28;20139;-35
2023/06/21 05:21:34;;;;;;;4.05;1.38;;;27.40;60.20;;;;;;10533107;28;20124;-32
2023/06/21 05:26:36;;;;;;;6.35;0.90;;;26.80;61.50;;;;;;10531917;28;20080;-36
2023/06/21 05:31:42;;;;;;;3.80;0.93;;;27.20;60.80;;;;;;10530014;28;20144;-32
2023/06/21 05:36:44;;;;;;;2.42;1.00;;;27.20;60.70;;;;;;10531417;28;21089;-37
2023/06/21 05:41:46;;;;;;;4.75;1.52;;;25.40;69.30;;;;;;10529983;28;20051;-32
2023/06/21 05:46:49;;;;;;;2.45;0.98;;;24.30;73.70;;;;;;10530770;28;20530;-35
2023/06/21 05:51:51;;;;;;;4.13;1.10;;;25.70;67.10;;;;;;10521333;28;20147;-31
2023/06/21 05:56:55;;;;;;;;;;;23.40;81.30;;;;;;10529898;28;20070;-33
2023/06/21 06:01:58;;;;;;;5.65;1.05;;;23.20;79.10;;;;;;10528189;28;19928;-37
2023/06/21 06:07:00;;;;;;;3.70;1.20;;;24.30;72.40;;;;;;10529518;28;20075;-31
2023/06/21 06:12:01;;;;;;;2.35;1.10;;;22.90;82.70;;;;;;10533869;28;20136;-31
2023/06/21 06:17:05;;;;;;;;;;;23.30;80.30;;;;;;10531635;28;20052;-30
2023/06/21 06:22:06;;;;;;;1.55;0.70;;;24.90;70.40;;;;;;10530702;28;20001;-31
2023/06/21 06:27:08;;;;;;;;;;;24.40;75.40;;;;;;10528459;28;20052;-30
2023/06/21 06:32:11;;;;;;;3.35;1.10;;;24.70;68.30;;;;;;10528575;28;19959;-35
2023/06/21 06:37:13;;;;;;;1.92;1.10;;;23.90;76.30;;;;;;10530767;28;20090;-33
2023/06/21 06:42:15;;;;;;;3.35;1.10;;;25.40;67.00;;;;;;10530331;28;20139;-35
2023/06/21 06:47:18;;;;;;;;;;;23.90;74.50;;;;;;10530560;28;20078;-31
2023/06/21 06:52:20;;;;;;;4.60;1.33;;;23.40;76.50;;;;;;10529576;28;20356;-36
2023/06/21 06:57:21;;;;;;;;;;;23.30;79.10;;;;;;10530448;28;20087;-32
2023/06/21 07:02:25;;;;;;;2.28;0.98;;;24.10;74.40;;;;;;10529437;28;20317;-32
2023/06/21 07:07:26;;;;;;;2.22;1.30;;;24.20;74.00;;;;;;10534178;28;20052;-30
2023/06/21 07:12:28;;;;;;;;;;;23.90;76.80;;;;;;10528863;28;20090;-30
2023/06/21 07:17:31;;;;;;;4.47;0.93;;;22.10;89.10;;;;;;10529763;28;20355;-32
2023/06/21 07:22:33;;;;;;;3.25;1.27;;;25.30;68.40;;;;;;10529680;28;20516;-34
2023/06/21 07:27:35;;;;;;;;;;;23.70;77.40;;;;;;10538544;28;20131;-31
2023/06/21 07:32:38;;;;;;;8.07;2.35;;;24.00;74.80;;;;;;10538590;28;20303;-31
2023/06/21 07:37:40;;;;;;;5.03;1.70;;;23.20;78.90;;;;;;10529907;28;20048;-31
2023/06/21 07:42:43;;;;;;;2.65;1.10;;;23.90;77.40;;;;;;10528604;28;20656;-35
2023/06/21 07:47:46;;;;;;;2.00;1.13;;;24.00;76.30;;;;;;10529929;28;20557;-31
2023/06/21 07:52:48;;;;;;;3.33;1.50;;;23.40;81.40;;;;;;10529813;28;20559;-32
2023/06/21 07:57:49;;;;;;;;;;;24.00;76.90;;;;;;10530118;28;20499;-33
2023/06/21 08:02:53;;;;;;;2.83;1.30;;;24.20;74.80;;;;;;10537061;28;19973;-35
2023/06/21 08:07:58;;;;;;;6.00;2.10;;;25.20;69.90;;;;;;10537198;28;20040;-33
2023/06/21 08:13:00;;;;;;;5.95;1.35;;;25.20;68.10;;;;;;10531551;28;20149;-32
2023/06/21 08:18:03;;;;;;;7.95;3.45;;;24.50;74.00;;;;;;10531284;28;20586;-33
2023/06/21 08:23:05;;;;;;;1.77;0.90;;;22.50;90.10;;;;;;10536675;28;20122;-30
2023/06/21 08:28:07;;;;;;;;;;;25.40;69.40;;;;;;10536478;28;20097;-33
2023/06/21 08:33:10;;;;;;;7.50;2.45;;;25.30;68.60;;;;;;10536280;28;20029;-35
2023/06/21 08:38:12;;;;;;;8.75;2.13;;;24.50;74.00;;;;;;10545810;28;20067;-34
2023/06/21 08:43:14;;;;;;;7.32;3.30;;;25.40;68.80;;;;;;10536455;28;20048;-31
2023/06/21 08:48:19;;;;;;;4.45;1.48;;;23.70;82.40;;;;;;10534993;28;20463;-34
2023/06/21 08:53:30;;;;;;;10.45;3.72;;;24.90;75.00;;;;;;10535407;28;20083;-31
2023/06/21 08:58:37;;;;;;;3.42;1.63;;;24.10;81.70;;;;;;10535021;28;20076;-32
2023/06/21 09:03:49;;;;;;;7.88;3.50;;;24.50;74.90;;;;;;10535482;28;20131;-32
2023/06/21 09:08:52;;;;;;;7.57;3.45;;;24.90;72.90;;;;;;10535205;28;20129;-35
2023/06/21 09:13:55;;;;;;;1.50;1.20;;;23.90;83.90;;;;;;10526192;28;20058;-32
2023/06/21 09:18:58;;;;;;;2.63;1.77;;;25.50;68.80;;;;;;10534011;28;20052;-32
2023/06/21 09:24:00;;;;;;;10.30;4.70;;;22.70;90.30;;;;;;10533960;28;20055;-32
2023/06/21 09:29:02;;;;;;;16.65;4.55;;;23.50;88.70;;;;;;10532154;28;20078;-33
2023/06/21 09:34:06;;;;;;;;;;;22.80;92.70;;;;;;10533035;28;20132;-32
2023/06/21 09:39:08;;;;;;;9.60;4.38;;;24.70;81.50;;;;;;10530187;28;20478;-32
2023/06/21 09:44:10;;;;;;;11.00;4.78;;;24.30;79.80;;;;;;10539710;28;20039;-31
2023/06/21 09:49:13;;;;;;;;;;;23.20;90.90;;;;;;10534180;28;20064;-35
2023/06/21 09:54:15;;;;;;;3.45;1.60;;;23.00;92.10;;;;;;10533174;28;19974;-33
2023/06/21 09:59:19;;;;;;;16.38;5.05;;;23.70;90.50;;;;;;10532201;28;20094;-34
2023/06/21 10:04:24;;;;;;;7.38;4.03;;;23.30;91.60;;;;;;10534868;28;20490;-35
2023/06/21 10:09:26;;;;;;;7.68;3.78;;;23.20;89.70;;;;;;10534548;28;20048;-37
2023/06/21 10:14:29;;;;;;;6.65;3.08;;;22.50;92.80;;;;;;10532034;28;20228;-36
2023/06/21 10:19:33;;;;;;;8.68;4.47;;;24.10;85.00;;;;;;10530489;28;20050;-31
2023/06/21 10:24:40;;;;;;;10.77;4.15;;;22.50;92.40;;;;;;10536556;28;20148;-35
2023/06/21 10:29:44;;;;;;;5.47;1.55;;;22.30;93.30;;;;;;10521532;28;20125;-34
2023/06/21 10:34:56;;;;;;;10.35;3.05;;;24.70;79.30;;;;;;10531741;28;20152;-31
2023/06/21 10:40:04;;;;;;;4.57;2.42;;;24.10;83.60;;;;;;10538465;28;20105;-31
2023/06/21 10:45:09;;;;;;;10.23;3.40;;;24.50;79.70;;;;;;10531024;28;20040;-31
2023/06/21 10:50:12;;;;;;;10.38;5.93;;;23.00;90.50;;;;;;10530630;28;20131;-33
2023/06/21 10:55:14;;;;;;;5.30;2.65;;;22.80;91.10;;;;;;10531199;28;20138;-31
2023/06/21 11:00:17;;;;;;;3.85;3.08;;;23.20;90.40;;;;;;10529325;28;20135;-31
2023/06/21 11:05:22;;;;;;;8.25;3.35;;;23.60;86.60;;;;;;10530746;28;20090;-33
2023/06/21 11:10:31;;;;;;;7.30;2.80;;;24.10;84.10;;;;;;10529000;28;20116;-33
2023/06/21 11:15:34;;;;;;;3.70;2.60;;;24.90;76.30;;;;;;10530807;28;20484;-32
2023/06/21 11:20:48;;;;;;;2.53;1.92;;;24.80;76.80;;;;;;10530130;28;20059;-32
2023/06/21 11:25:51;;;;;;;3.97;2.47;;;23.70;83.20;;;;;;10535353;28;20067;-32
2023/06/21 11:31:14;;;;;;;6.38;3.03;;;25.20;74.30;;;;;;10530897;28;20054;-32
2023/06/21 11:36:21;;;;;;;7.82;3.28;;;23.80;84.40;;;;;;10541068;28;20051;-33
2023/06/21 11:42:00;;;;;;;6.95;3.30;;;24.60;79.60;;;;;;10539246;28;20044;-32
2023/06/21 11:47:18;;;;;;;5.57;4.05;;;25.20;74.60;;;;;;10537385;28;20079;-32
2023/06/21 11:52:31;;;;;;;7.47;2.30;;;24.40;80.40;;;;;;10538009;28;20078;-35
2023/06/21 11:57:42;;;;;;;3.95;2.33;;;24.50;79.20;;;;;;10542804;28;20148;-35
2023/06/21 12:02:45;;;;;;;2.97;1.40;;;24.90;73.70;;;;;;10537390;28;20694;-32
2023/06/21 12:07:48;;;;;;;4.75;2.03;;;26.10;69.90;;;;;;10540434;28;20609;-32
2023/06/21 12:12:50;;;;;;;2.53;1.60;;;25.30;71.90;;;;;;10536137;28;20680;-34
2023/06/21 12:17:53;;;;;;;10.15;3.45;;;26.50;67.00;;;;;;10532992;28;20097;-31
2023/06/21 12:22:56;;;;;;;4.25;1.95;;;25.80;70.10;;;;;;10536244;28;20055;-31
2023/06/21 12:27:58;;;;;;;4.32;2.40;;;25.40;74.20;;;;;;10535384;28;20516;-37
2023/06/21 12:33:00;;;;;;;6.57;3.63;;;26.30;67.50;;;;;;10536155;28;20139;-34
2023/06/21 12:38:13;;;;;;;4.18;2.20;;;25.30;69.30;;;;;;10533655;28;20067;-36
2023/06/21 12:43:15;;;;;;;5.90;3.67;;;26.50;68.50;;;;;;10537011;28;20048;-36
2023/06/21 12:48:20;;;;;;;2.60;1.50;;;25.40;71.60;;;;;;10534209;28;20083;-38
2023/06/21 12:53:25;;;;;;;12.88;4.80;;;26.50;70.00;;;;;;10545624;28;20541;-40
2023/06/21 12:58:27;;;;;;;5.93;2.70;;;26.50;66.80;;;;;;10534879;28;20465;-38
2023/06/21 13:03:29;;;;;;;5.93;2.17;;;26.30;70.50;;;;;;10534728;28;20520;-34
2023/06/21 13:08:33;;;;;;;2.13;1.40;;;26.00;69.30;;;;;;10537243;28;20043;-35
2023/06/21 13:13:35;;;;;;;7.28;4.75;;;27.10;67.80;;;;;;10540060;28;20056;-33
2023/06/21 13:18:37;;;;;;;2.88;2.58;;;26.50;66.10;;;;;;10532829;28;20621;-31
2023/06/21 13:23:40;;;;;;;5.97;3.42;;;26.70;65.60;;;;;;10534631;28;20089;-32
2023/06/21 13:28:42;;;;;;;7.38;4.78;;;27.30;66.90;;;;;;10533759;28;20067;-35
2023/06/21 13:33:44;;;;;;;4.43;2.70;;;28.10;62.50;;;;;;10533661;28;20062;-32
2023/06/21 13:38:47;;;;;;;9.63;3.80;;;26.50;62.40;;;;;;10533205;28;20082;-32
2023/06/21 13:43:49;;;;;;;2.40;1.20;;;27.50;65.60;;;;;;10537726;28;20075;-31
2023/06/21 13:48:51;;;;;;;6.75;3.90;;;28.00;65.70;;;;;;10531646;28;20488;-34
2023/06/21 13:53:55;;;;;;;2.38;1.58;;;27.30;62.30;;;;;;10533244;28;20083;-31
2023/06/21 13:58:56;;;;;;;3.38;1.88;;;28.40;62.00;;;;;;10531942;28;20138;-37
2023/06/21 14:03:58;;;;;;;2.30;1.70;;;29.20;62.10;;;;;;10532486;28;20106;-31
2023/06/21 14:09:02;;;;;;;2.92;1.65;;;28.80;58.50;;;;;;10532266;28;20117;-33
2023/06/21 14:14:05;;;;;;;7.05;2.97;;;29.40;61.50;;;;;;10533004;28;20098;-31
2023/06/21 14:19:07;;;;;;;5.40;3.17;;;29.30;56.00;;;;;;10528190;28;20040;-32
2023/06/21 14:24:10;;;;;;;3.10;1.50;;;29.80;56.50;;;;;;10533314;28;20089;-37
2023/06/21 14:29:12;;;;;;;4.03;2.03;;;29.70;55.30;;;;;;10545444;28;20386;-33
2023/06/21 14:34:14;;;;;;;8.07;2.70;;;30.30;57.20;;;;;;10531657;28;20129;-32
2023/06/21 14:39:17;;;;;;;5.35;1.98;;;30.50;56.80;;;;;;10534771;28;20570;-38
2023/06/21 14:44:19;;;;;;;3.20;1.58;;;30.60;58.40;;;;;;10527808;28;20052;-41
2023/06/21 14:49:21;;;;;;;4.20;1.85;;;29.50;57.90;;;;;;10527530;28;20059;-36
2023/06/21 14:54:24;;;;;;;1.75;1.15;;;30.30;51.30;;;;;;10532783;28;20137;-35
2023/06/21 14:59:26;;;;;;;3.67;1.40;;;31.10;57.30;;;;;;10530090;28;20536;-31
2023/06/21 15:04:28;;;;;;;4.30;1.90;;;31.20;54.80;;;;;;10530819;28;20498;-36
2023/06/21 15:09:31;;;;;;;2.10;1.00;;;31.80;52.20;;;;;;10530989;28;20097;-32
2023/06/21 15:14:33;;;;;;;4.35;2.65;;;31.90;56.50;;;;;;10532823;28;20059;-32
2023/06/21 15:19:35;;;;;;;3.55;2.30;;;30.50;56.50;;;;;;10529031;28;20127;-32
2023/06/21 15:24:38;;;;;;;0.80;0.70;;;31.90;49.60;;;;;;10528843;28;20214;-33
2023/06/21 15:29:40;;;;;;;1.98;1.13;;;32.40;57.00;;;;;;10529318;28;20473;-35
2023/06/21 15:34:44;;;;;;;5.20;2.97;;;32.80;58.10;;;;;;10526930;28;20060;-32
2023/06/21 15:39:47;;;;;;;3.15;2.28;;;32.70;48.20;;;;;;10526158;28;20056;-34
2023/06/21 15:44:49;;;;;;;3.70;2.47;;;32.80;51.00;;;;;;10527874;28;20476;-33
2023/06/21 15:49:51;;;;;;;2.85;2.20;;;32.90;48.30;;;;;;10526908;28;20052;-32
2023/06/21 15:54:54;;;;;;;1.02;0.80;;;34.00;56.60;;;;;;10527338;28;20131;-34
2023/06/21 15:59:56;;;;;;;2.30;1.20;;;33.60;57.60;;;;;;10513035;28;20132;-33
2023/06/21 16:05:01;;;;;;;2.33;1.08;;;33.10;58.50;;;;;;10507535;28;20048;-34
2023/06/21 16:10:06;;;;;;;2.90;1.45;;;34.20;61.30;;;;;;10527231;28;20405;-31
2023/06/21 16:15:11;;;;;;;1.02;0.93;;;34.60;57.20;;;;;;10527743;28;20048;-33
2023/06/21 16:20:13;;;;;;;1.75;1.10;;;34.10;58.10;;;;;;10534819;28;20048;-31
2023/06/21 16:25:16;;;;;;;2.00;1.05;;;34.90;57.40;;;;;;10534702;28;20044;-32
2023/06/21 16:30:18;;;;;;;1.08;0.77;;;35.40;54.30;;;;;;10534842;28;20432;-32
2023/06/21 16:35:20;;;;;;;1.85;1.20;;;34.60;59.90;;;;;;10533580;28;20467;-37
2023/06/21 16:40:23;;;;;;;2.40;1.60;;;35.20;56.30;;;;;;10530392;28;20082;-34
2023/06/21 16:45:25;;;;;;;2.22;0.98;;;35.20;46.10;;;;;;10535844;28;20074;-35
2023/06/21 16:50:28;;;;;;;1.13;0.60;;;35.10;57.30;;;;;;10528992;28;20040;-37
2023/06/21 16:55:32;;;;;;;1.55;0.80;;;35.20;55.00;;;;;;10524960;28;20146;-32
2023/06/21 17:00:33;;;;;;;1.73;0.90;;;35.10;57.90;;;;;;10538218;28;20139;-32
2023/06/21 17:05:36;;;;;;;3.13;0.80;;;35.70;52.90;;;;;;10525476;28;20075;-35
2023/06/21 17:10:39;;;;;;;1.67;0.90;;;35.80;55.20;;;;;;10533966;28;20052;-35
2023/06/21 17:15:41;;;;;;;1.08;0.98;;;35.70;57.40;;;;;;10534159;28;20044;-36
2023/06/21 17:20:43;;;;;;;1.50;0.85;;;36.00;50.80;;;;;;10534330;28;20127;-32
2023/06/21 17:25:47;;;;;;;1.17;0.65;;;35.50;44.90;;;;;;10530954;28;20071;-35
2023/06/21 17:30:50;;;;;;;0.68;0.68;;;35.40;54.90;;;;;;10546194;28;20127;-33
2023/06/21 17:35:52;;;;;;;3.45;1.13;;;35.50;54.60;;;;;;10519585;28;20143;-33
2023/06/21 17:40:55;;;;;;;0.90;0.68;;;36.00;52.20;;;;;;10534180;28;20043;-34
2023/06/21 17:45:57;;;;;;;1.30;0.52;;;35.60;52.70;;;;;;10533227;28;20459;-40
2023/06/21 17:50:59;;;;;;;1.17;0.80;;;35.50;53.60;;;;;;10533106;28;20076;-42
2023/06/21 17:56:02;;;;;;;1.63;0.80;;;35.50;52.70;;;;;;10532738;28;20147;-33
2023/06/21 18:01:04;;;;;;;1.52;1.00;;;35.60;52.30;;;;;;10539300;28;20040;-35
2023/06/21 18:06:06;;;;;;;1.40;0.80;;;35.40;52.30;;;;;;10540046;28;20040;-34
2023/06/21 18:11:09;;;;;;;3.13;0.52;;;35.40;53.10;;;;;;10531358;28;20408;-35
2023/06/21 18:16:11;;;;;;;0.70;0.57;;;35.60;50.60;;;;;;10527253;28;20418;-36
2023/06/21 18:21:17;;;;;;;0.80;0.57;;;35.50;51.60;;;;;;10407043;28;20186;-34
2023/06/21 18:26:20;;;;;;;0.63;0.60;;;35.70;50.70;;;;;;10488706;28;20698;-33
2023/06/21 18:31:22;;;;;;;2.15;0.93;;;35.50;51.20;;;;;;10490800;28;20128;-39
2023/06/21 18:36:23;;;;;;;0.88;0.55;;;35.30;50.90;;;;;;10489857;28;20492;-31
2023/06/21 18:41:27;;;;;;;1.25;0.90;;;35.20;51.20;;;;;;10490466;28;20139;-32
2023/06/21 18:46:29;;;;;;;0.80;0.70;;;35.10;50.90;;;;;;10488550;28;20147;-36
2023/06/21 18:51:30;;;;;;;0.80;0.60;;;34.90;51.10;;;;;;10489084;28;20478;-34
2023/06/21 18:56:34;;;;;;;0.63;0.60;;;34.90;50.60;;;;;;10486191;28;20497;-36
2023/06/21 19:01:36;;;;;;;0.98;0.80;;;34.90;50.50;;;;;;10493113;28;20433;-32
2023/06/21 19:06:39;;;;;;;2.10;0.90;;;34.80;50.50;;;;;;10488866;28;20072;-34
2023/06/21 19:11:42;;;;;;;0.90;0.65;;;34.70;50.40;;;;;;10491506;28;20574;-32
2023/06/21 19:16:44;;;;;;;0.80;0.70;;;34.50;50.50;;;;;;10489089;28;20548;-33
2023/06/21 19:21:46;;;;;;;2.35;0.95;;;34.40;50.60;;;;;;10488685;28;20615;-34
2023/06/21 19:26:49;;;;;;;1.50;0.90;;;33.90;51.10;;;;;;10490444;28;20078;-33
2023/06/21 19:31:51;;;;;;;4.78;2.78;;;33.70;51.40;;;;;;10488135;28;20471;-33
2023/06/21 19:36:53;;;;;;;0.73;0.68;;;33.30;51.00;;;;;;10490229;28;20165;-32
2023/06/21 19:41:56;;;;;;;1.23;1.00;;;33.30;51.90;;;;;;10489635;28;20135;-33
2023/06/21 19:46:57;;;;;;;0.73;0.73;;;33.10;52.00;;;;;;10490938;28;20071;-32
2023/06/21 19:51:59;;;;;;;1.83;1.20;;;33.50;51.30;;;;;;10489605;28;20044;-33
2023/06/21 19:57:02;;;;;;;1.75;0.95;;;33.40;51.20;;;;;;10495829;28;20501;-37
2023/06/21 20:02:05;;;;;;;1.30;0.90;;;33.40;51.20;;;;;;10503046;28;20040;-35
2023/06/21 20:07:10;;;;;;;1.10;1.00;;;33.20;51.40;;;;;;10495190;28;20117;-34
2023/06/21 20:12:14;;;;;;;1.52;1.10;;;33.10;51.30;;;;;;10501338;28;20476;-33
2023/06/21 20:17:17;;;;;;;1.70;1.17;;;33.10;51.40;;;;;;10495162;28;20481;-32
2023/06/21 20:22:19;;;;;;;4.60;1.38;;;32.90;51.50;;;;;;10494664;28;20066;-32
2023/06/21 20:27:22;;;;;;;2.72;0.98;;;32.80;51.50;;;;;;10493947;28;20397;-32
2023/06/21 20:32:24;;;;;;;2.75;1.40;;;32.80;51.60;;;;;;10502759;28;20053;-35
2023/06/21 20:37:26;;;;;;;2.85;1.30;;;32.80;51.70;;;;;;10496516;28;20086;-33
2023/06/21 20:42:29;;;;;;;1.40;1.10;;;32.60;51.90;;;;;;10494064;28;20446;-35
2023/06/21 20:47:31;;;;;;;2.58;1.10;;;32.60;51.70;;;;;;10492118;28;20103;-32
2023/06/21 20:52:33;;;;;;;2.67;1.30;;;32.40;51.90;;;;;;10491536;28;20076;-32
2023/06/21 20:57:36;;;;;;;1.20;0.90;;;32.30;51.90;;;;;;10491865;28;20056;-31
2023/06/21 21:02:38;;;;;;;3.22;1.35;;;32.30;52.00;;;;;;10492066;28;20063;-33
2023/06/21 21:07:41;;;;;;;2.70;1.27;;;32.20;52.00;;;;;;10491159;28;20044;-33
2023/06/21 21:12:44;;;;;;;4.50;1.45;;;32.10;52.10;;;;;;10491208;28;20222;-35
2023/06/21 21:17:45;;;;;;;6.25;1.50;;;32.00;52.20;;;;;;10491218;28;20139;-34
2023/06/21 21:22:47;;;;;;;1.80;0.93;;;32.00;52.40;;;;;;10490542;28;20110;-35
2023/06/21 21:27:50;;;;;;;1.25;1.13;;;31.90;52.40;;;;;;10488749;28;20113;-33
2023/06/21 21:32:52;;;;;;;2.13;1.50;;;31.90;52.40;;;;;;10491559;28;20143;-36
2023/06/21 21:37:54;;;;;;;2.67;1.48;;;31.80;52.40;;;;;;10495230;28;20090;-34
2023/06/21 21:42:58;;;;;;;4.53;1.40;;;31.80;52.60;;;;;;10483435;28;20532;-34
2023/06/21 21:48:01;;;;;;;4.05;1.60;;;31.70;52.50;;;;;;10479177;28;20072;-35
2023/06/21 21:53:03;;;;;;;1.92;1.30;;;31.60;52.70;;;;;;10490953;28;20044;-33
2023/06/21 21:58:08;;;;;;;2.47;1.42;;;31.50;52.80;;;;;;10490243;28;20048;-31
2023/06/21 22:03:10;;;;;;;2.15;1.25;;;31.50;52.90;;;;;;10490449;28;20135;-31
2023/06/21 22:08:12;;;;;;;2.42;1.30;;;31.40;52.80;;;;;;10499417;28;20131;-35
2023/06/21 22:13:18;;;;;;;2.97;1.55;;;31.40;52.90;;;;;;10489180;28;20079;-34
2023/06/21 22:18:24;;;;;;;2.33;1.33;;;31.30;53.00;;;;;;10489451;28;20052;-32
2023/06/21 22:23:28;;;;;;;2.15;1.25;;;31.20;53.00;;;;;;10490309;28;20477;-32
2023/06/21 22:28:34;;;;;;;2.25;1.38;;;31.20;53.10;;;;;;10489027;28;20045;-32
2023/06/21 22:33:35;;;;;;;2.22;1.48;;;31.10;53.20;;;;;;10488093;28;20548;-32
2023/06/21 22:38:37;;;;;;;2.05;1.48;;;31.10;53.20;;;;;;10491998;28;20048;-37
2023/06/21 22:43:42;;;;;;;2.85;1.40;;;31.00;53.30;;;;;;10489215;28;20556;-30
2023/06/21 22:48:44;;;;;;;2.35;1.52;;;31.00;53.20;;;;;;10479802;28;20295;-33
2023/06/21 22:53:45;;;;;;;2.60;1.42;;;30.90;53.30;;;;;;10487176;28;20052;-32
2023/06/21 22:58:49;;;;;;;2.13;1.35;;;30.80;53.30;;;;;;10490204;28;20105;-31
2023/06/21 23:03:50;;;;;;;3.30;1.60;;;30.80;53.30;;;;;;10487098;28;20405;-31
2023/06/21 23:08:53;;;;;;;2.30;1.52;;;30.70;53.30;;;;;;10490658;28;20082;-32
2023/06/21 23:13:57;;;;;;;2.63;1.20;;;30.70;53.30;;;;;;10497496;28;20715;-32
2023/06/21 23:18:59;;;;;;;2.45;1.38;;;30.70;53.30;;;;;;10489693;28;20457;-32
2023/06/21 23:24:04;;;;;;;3.05;1.35;;;30.60;53.90;;;;;;10492556;28;20104;-33
2023/06/21 23:29:10;;;;;;;1.90;1.40;;;30.50;53.50;;;;;;10489268;28;20045;-32
2023/06/21 23:34:14;;;;;;;2.50;1.20;;;30.40;53.60;;;;;;10495119;28;20053;-32
2023/06/21 23:39:16;;;;;;;1.40;1.30;;;30.40;53.40;;;;;;10495422;28;20037;-32
2023/06/21 23:44:23;;;;;;;3.08;1.90;;;30.30;53.70;;;;;;10492450;28;20181;-37
2023/06/21 23:49:25;;;;;;;1.75;1.35;;;30.30;53.80;;;;;;10493895;28;20549;-32
2023/06/21 23:54:27;;;;;;;2.78;1.30;;;30.20;53.80;;;;;;10496702;28;20043;-32
2023/06/21 23:59:32;;;;;;;1.90;1.50;;;30.10;53.80;;;;;;10495601;28;20405;-33
